Time;durP1;ratioP1;P1;durP2;ratioP2;P2;SDS_P1;SDS_P2;PMS_P1;PMS_P2;Temp;Humidity;BMP_temperature;BMP_pressure;BME280_temperature;BME280_humidity;BME280_pressure;Samples;Min_cycle;Max_cycle;Signal;HPM_P1;HPM_P2
2022/01/29 00:00:46;;;;;;;35.60;21.23;;;7.00;99.90;;;;;;5051135;28;20749;-78
2022/01/29 00:03:12;;;;;;;39.00;22.33;;;7.00;99.90;;;;;;5050678;28;20433;-79
2022/01/29 00:05:37;;;;;;;38.20;23.70;;;6.90;99.90;;;;;;5081794;28;20073;-78
2022/01/29 00:08:03;;;;;;;35.70;23.10;;;6.90;99.90;;;;;;5050238;28;20041;-78
2022/01/29 00:10:31;;;;;;;41.47;24.83;;;6.90;99.90;;;;;;5050105;28;20090;-78
2022/01/29 00:12:57;;;;;;;44.42;23.58;;;6.90;99.90;;;;;;5050934;28;20450;-78
2022/01/29 00:15:22;;;;;;;41.05;25.15;;;6.90;99.90;;;;;;5050874;28;20086;-78
2022/01/29 00:17:48;;;;;;;46.72;26.50;;;6.90;99.90;;;;;;5050180;28;20045;-78
2022/01/29 00:20:14;;;;;;;44.78;27.35;;;6.90;99.90;;;;;;5051224;28;20112;-78
2022/01/29 00:22:40;;;;;;;43.80;27.42;;;6.90;99.90;;;;;;5051341;28;20382;-78
2022/01/29 00:25:07;;;;;;;40.92;27.50;;;6.80;99.90;;;;;;5082643;28;20053;-78
2022/01/29 00:27:35;;;;;;;45.03;28.60;;;6.90;99.90;;;;;;5082213;28;20114;-78
2022/01/29 00:30:07;;;;;;;48.65;30.10;;;6.80;99.90;;;;;;5050955;28;20479;-78
2022/01/29 00:32:33;;;;;;;51.15;31.77;;;6.90;99.90;;;;;;5051973;28;20037;-77
2022/01/29 00:34:59;;;;;;;58.05;32.38;;;6.80;99.90;;;;;;5083236;28;20127;-78
2022/01/29 00:37:25;;;;;;;54.95;34.10;;;6.80;99.90;;;;;;5050677;28;20171;-77
2022/01/29 00:39:51;;;;;;;57.95;32.13;;;6.80;99.90;;;;;;5051613;28;20048;-77
2022/01/29 00:42:16;;;;;;;51.17;32.05;;;6.80;99.90;;;;;;5039719;28;20605;-77
2022/01/29 00:44:42;;;;;;;50.90;33.50;;;6.80;99.90;;;;;;5083744;28;20067;-77
2022/01/29 00:47:08;;;;;;;51.50;34.08;;;6.80;99.90;;;;;;5051376;28;20391;-77
2022/01/29 00:49:34;;;;;;;54.75;33.60;;;6.80;99.90;;;;;;5050244;28;20041;-77
2022/01/29 00:52:00;;;;;;;56.15;34.92;;;6.80;99.90;;;;;;5048509;28;20052;-78
2022/01/29 00:54:25;;;;;;;55.90;35.50;;;6.80;99.90;;;;;;5051157;28;20437;-77
2022/01/29 00:56:51;;;;;;;54.45;33.60;;;6.80;99.90;;;;;;5082323;28;20072;-77
2022/01/29 00:59:16;;;;;;;50.58;33.50;;;6.80;99.90;;;;;;5082327;28;20048;-77
2022/01/29 01:01:42;;;;;;;57.55;35.25;;;6.80;99.90;;;;;;5049054;28;20765;-77
2022/01/29 01:04:08;;;;;;;56.35;34.30;;;6.80;99.90;;;;;;5050142;28;20098;-77
2022/01/29 01:06:33;;;;;;;49.92;32.92;;;6.80;99.90;;;;;;5082905;28;20033;-77
2022/01/29 01:08:59;;;;;;;51.17;32.08;;;6.80;99.90;;;;;;5082076;28;20045;-78
2022/01/29 01:11:25;;;;;;;54.83;35.78;;;6.90;99.90;;;;;;5049005;28;20098;-77
2022/01/29 01:13:50;;;;;;;48.47;32.40;;;6.80;99.90;;;;;;5041800;28;20713;-77
2022/01/29 01:16:16;;;;;;;47.63;32.95;;;6.80;99.90;;;;;;5050502;28;20040;-76
2022/01/29 01:18:41;;;;;;;46.60;31.08;;;6.80;99.90;;;;;;5048943;28;20051;-77
2022/01/29 01:21:07;;;;;;;48.65;32.28;;;6.80;99.90;;;;;;5049103;28;20051;-77
2022/01/29 01:23:32;;;;;;;52.20;34.10;;;6.80;99.90;;;;;;5048553;28;20120;-77
2022/01/29 01:25:59;;;;;;;56.60;34.30;;;6.90;99.90;;;;;;5081590;28;20033;-76
2022/01/29 01:28:25;;;;;;;53.13;34.58;;;6.90;99.90;;;;;;5048580;28;20041;-76
2022/01/29 01:30:51;;;;;;;56.28;33.45;;;6.90;99.90;;;;;;5049240;28;20399;-76
2022/01/29 01:33:17;;;;;;;49.42;32.55;;;6.90;99.90;;;;;;5047251;28;20098;-77
2022/01/29 01:35:55;;;;;;;52.78;30.98;;;6.90;99.90;;;;;;5050568;28;20446;-77
2022/01/29 01:38:25;;;;;;;48.42;31.20;;;6.90;99.90;;;;;;5049383;28;20040;-77
2022/01/29 01:40:56;;;;;;;46.03;31.00;;;6.90;99.90;;;;;;5049290;28;20049;-77
2022/01/29 01:43:22;;;;;;;45.70;30.83;;;7.00;99.90;;;;;;5049014;28;20505;-76
2022/01/29 01:45:47;;;;;;;49.38;31.90;;;6.90;99.90;;;;;;5050146;28;20041;-76
2022/01/29 01:48:13;;;;;;;48.50;31.08;;;6.90;99.90;;;;;;5049741;28;20033;-77
2022/01/29 01:50:39;;;;;;;47.47;30.88;;;6.90;99.90;;;;;;5047984;28;20045;-77
2022/01/29 01:53:05;;;;;;;48.85;31.08;;;7.00;99.90;;;;;;5080726;28;20076;-77
2022/01/29 01:55:32;;;;;;;48.05;31.40;;;7.00;99.90;;;;;;5082490;28;20041;-77
2022/01/29 01:57:58;;;;;;;51.95;32.15;;;7.00;99.90;;;;;;5047353;28;20075;-77
2022/01/29 02:00:27;;;;;;;56.45;32.15;;;7.00;99.90;;;;;;5049583;28;20037;-76
2022/01/29 02:02:53;;;;;;;61.75;33.45;;;7.00;99.90;;;;;;5049365;28;20120;-77
2022/01/29 02:05:19;;;;;;;49.38;31.98;;;7.00;99.90;;;;;;5048626;28;20076;-77
2022/01/29 02:07:46;;;;;;;49.95;31.73;;;7.00;99.90;;;;;;5050065;28;20037;-77
2022/01/29 02:10:13;;;;;;;54.38;31.25;;;7.00;99.90;;;;;;5045707;28;20040;-76
2022/01/29 02:12:51;;;;;;;52.35;31.63;;;7.10;99.90;;;;;;5047705;28;20689;-77
2022/01/29 02:15:19;;;;;;;54.53;31.35;;;7.10;99.90;;;;;;5082261;28;20048;-76
2022/01/29 02:17:48;;;;;;;50.55;30.70;;;7.10;99.90;;;;;;5048225;28;20139;-76
2022/01/29 02:20:16;;;;;;;54.45;31.23;;;7.10;99.90;;;;;;5048751;28;20124;-77
2022/01/29 02:22:43;;;;;;;48.53;30.63;;;7.10;99.90;;;;;;5048603;28;20037;-77
2022/01/29 02:25:31;;;;;;;57.72;31.77;;;7.10;99.90;;;;;;5047359;28;20487;-77
2022/01/29 02:28:12;;;;;;;52.00;31.45;;;7.10;99.90;;;;;;5048048;28;20037;-77
2022/01/29 02:30:40;;;;;;;54.67;30.42;;;7.10;99.90;;;;;;5040607;28;20049;-76
2022/01/29 02:33:10;;;;;;;52.78;30.00;;;7.20;99.90;;;;;;5047558;28;20513;-77
2022/01/29 02:35:41;;;;;;;64.30;30.73;;;7.10;99.90;;;;;;5047494;28;20045;-76
2022/01/29 02:38:11;;;;;;;56.30;27.85;;;7.20;99.90;;;;;;5047435;28;20563;-77
2022/01/29 02:41:11;;;;;;;49.08;27.95;;;7.20;99.90;;;;;;5082154;28;20087;-76
2022/01/29 02:43:42;;;;;;;52.97;27.38;;;7.30;99.90;;;;;;5045802;28;20037;-76
2022/01/29 02:46:20;;;;;;;45.08;25.95;;;7.30;99.90;;;;;;5048725;28;20041;-77
2022/01/29 02:48:48;;;;;;;43.33;25.27;;;7.30;99.90;;;;;;5046655;28;20491;-77
2022/01/29 02:51:14;;;;;;;53.33;25.50;;;7.30;99.90;;;;;;5064315;28;20076;-77
2022/01/29 02:53:40;;;;;;;45.95;25.50;;;7.40;99.90;;;;;;5048356;28;20426;-77
2022/01/29 02:56:08;;;;;;;45.92;25.17;;;7.40;99.90;;;;;;5081702;28;20124;-77
2022/01/29 02:58:33;;;;;;;53.30;25.23;;;7.50;99.90;;;;;;5041044;28;20119;-77
2022/01/29 03:00:59;;;;;;;46.97;25.33;;;7.50;99.90;;;;;;5048318;28;20148;-77
2022/01/29 03:03:25;;;;;;;49.75;23.45;;;7.50;99.90;;;;;;5048006;28;20045;-77
2022/01/29 03:05:51;;;;;;;48.22;23.55;;;7.50;99.90;;;;;;5046086;28;20041;-77
2022/01/29 03:08:17;;;;;;;44.42;23.02;;;7.50;99.90;;;;;;5047559;28;20446;-77
2022/01/29 03:10:43;;;;;;;48.20;24.23;;;7.60;99.90;;;;;;5044897;28;20041;-77
2022/01/29 03:13:09;;;;;;;47.55;22.77;;;7.60;99.90;;;;;;5080931;28;20045;-77
2022/01/29 03:15:35;;;;;;;49.13;23.42;;;7.50;99.90;;;;;;5047918;28;20059;-76
2022/01/29 03:18:01;;;;;;;45.03;21.88;;;7.60;99.90;;;;;;5048072;28;20053;-77
2022/01/29 03:20:27;;;;;;;39.80;23.33;;;7.60;99.90;;;;;;5046620;28;20049;-77
2022/01/29 03:22:52;;;;;;;44.03;23.10;;;7.60;99.90;;;;;;5051437;28;20047;-77
2022/01/29 03:25:18;;;;;;;43.45;22.48;;;7.60;99.90;;;;;;5052235;28;20045;-77
2022/01/29 03:27:44;;;;;;;47.70;25.38;;;7.70;99.90;;;;;;5051815;28;20128;-76
2022/01/29 03:30:10;;;;;;;43.33;23.73;;;7.60;99.90;;;;;;5050278;28;20052;-77
2022/01/29 03:32:36;;;;;;;41.20;22.42;;;7.70;99.90;;;;;;5085877;28;20044;-77
2022/01/29 03:35:02;;;;;;;39.78;23.13;;;7.60;99.90;;;;;;5054102;28;20060;-77
2022/01/29 03:37:28;;;;;;;42.55;22.48;;;7.70;99.90;;;;;;5054005;28;20399;-77
2022/01/29 03:39:58;;;;;;;40.55;22.52;;;7.70;99.90;;;;;;5052499;28;20265;-77
2022/01/29 03:42:25;;;;;;;38.15;22.02;;;7.70;99.90;;;;;;5052972;28;20167;-77
2022/01/29 03:44:50;;;;;;;40.55;22.50;;;7.70;99.90;;;;;;5044397;28;20123;-77
2022/01/29 03:47:16;;;;;;;47.55;23.10;;;7.70;99.90;;;;;;5053755;28;20080;-77
2022/01/29 03:49:42;;;;;;;47.42;24.17;;;7.70;99.90;;;;;;5052681;28;20045;-77
2022/01/29 03:52:07;;;;;;;45.08;23.67;;;7.70;99.90;;;;;;5051872;28;20128;-77
2022/01/29 03:54:33;;;;;;;38.33;22.90;;;7.70;99.90;;;;;;5052318;28;20041;-77
2022/01/29 03:56:58;;;;;;;42.00;22.95;;;7.80;99.90;;;;;;5053641;28;20041;-77
2022/01/29 03:59:24;;;;;;;36.65;22.27;;;7.80;99.90;;;;;;5053107;28;20080;-77
2022/01/29 04:01:50;;;;;;;40.50;22.15;;;7.80;99.90;;;;;;5053832;28;20087;-77
2022/01/29 04:04:15;;;;;;;47.97;24.23;;;7.80;99.90;;;;;;5052431;28;20119;-77
2022/01/29 04:06:41;;;;;;;40.90;21.25;;;7.80;99.90;;;;;;5053490;28;20045;-77
2022/01/29 04:09:10;;;;;;;43.72;22.38;;;7.80;99.90;;;;;;5053156;28;20041;-77
2022/01/29 04:11:37;;;;;;;40.60;22.65;;;7.80;99.90;;;;;;5051584;28;20045;-77
2022/01/29 04:14:04;;;;;;;47.38;22.77;;;7.70;99.90;;;;;;5068459;28;20060;-77
2022/01/29 04:16:30;;;;;;;44.88;24.20;;;7.80;99.90;;;;;;5052083;28;20036;-76
2022/01/29 04:18:55;;;;;;;42.70;22.75;;;7.80;99.90;;;;;;5051625;28;20091;-77
2022/01/29 04:21:21;;;;;;;45.30;23.38;;;7.90;99.90;;;;;;5051945;28;20171;-77
2022/01/29 04:23:46;;;;;;;48.15;23.33;;;7.90;99.90;;;;;;5051925;28;20072;-77
2022/01/29 04:26:12;;;;;;;42.20;22.52;;;7.80;99.90;;;;;;5084082;28;20033;-77
2022/01/29 04:28:41;;;;;;;35.72;22.27;;;7.80;99.90;;;;;;5052005;28;20041;-77
2022/01/29 04:31:13;;;;;;;42.22;21.85;;;7.90;99.90;;;;;;5051697;28;20056;-77
2022/01/29 04:33:39;;;;;;;42.20;20.80;;;7.90;99.90;;;;;;5050954;28;20078;-76
2022/01/29 04:36:06;;;;;;;34.72;22.10;;;7.90;99.90;;;;;;5051745;28;20057;-77
2022/01/29 04:38:33;;;;;;;37.70;20.88;;;7.90;99.90;;;;;;5051564;28;20573;-77
2022/01/29 04:41:04;;;;;;;38.83;21.95;;;7.90;99.90;;;;;;5051419;28;20040;-77
2022/01/29 04:43:35;;;;;;;42.92;21.05;;;7.90;99.90;;;;;;5050873;28;20041;-77
2022/01/29 04:46:01;;;;;;;38.08;20.35;;;8.00;99.90;;;;;;5052003;28;20033;-77
2022/01/29 04:48:27;;;;;;;36.40;21.52;;;7.90;99.90;;;;;;5051594;28;20506;-77
2022/01/29 04:50:53;;;;;;;33.22;20.42;;;7.90;99.90;;;;;;5052376;28;20556;-77
2022/01/29 04:53:18;;;;;;;37.03;21.08;;;7.90;99.90;;;;;;5052557;28;20525;-77
2022/01/29 04:55:44;;;;;;;32.67;20.38;;;7.90;99.90;;;;;;5051822;28;20063;-77
2022/01/29 04:58:09;;;;;;;39.60;20.23;;;8.00;99.90;;;;;;5082969;28;20132;-78
2022/01/29 05:00:35;;;;;;;32.65;19.85;;;8.00;99.90;;;;;;5051999;28;20048;-78
2022/01/29 05:03:12;;;;;;;32.55;19.73;;;8.00;99.90;;;;;;5050197;28;20041;-80
2022/01/29 05:05:39;;;;;;;34.67;20.63;;;8.00;99.90;;;;;;5049522;28;20427;-80
2022/01/29 05:08:05;;;;;;;34.90;21.13;;;8.00;99.90;;;;;;5050272;28;20044;-80
2022/01/29 05:10:32;;;;;;;30.77;19.80;;;8.00;99.90;;;;;;5082574;28;20037;-80
2022/01/29 05:13:13;;;;;;;36.85;21.08;;;8.00;99.90;;;;;;5049932;28;20095;-79
2022/01/29 05:16:13;;;;;;;32.35;19.48;;;8.00;99.90;;;;;;5048247;28;20479;-80
2022/01/29 05:26:56;;;;;;;30.77;18.75;;;8.00;99.90;;;;;;5082417;28;20076;-80
2022/01/29 05:29:22;;;;;;;35.83;18.88;;;8.00;99.90;;;;;;5050236;28;20033;-80
2022/01/29 05:31:51;;;;;;;34.40;18.17;;;8.10;99.90;;;;;;5048852;28;20045;-80
2022/01/29 05:34:21;;;;;;;30.25;18.98;;;8.00;99.90;;;;;;5049359;28;20084;-80
2022/01/29 05:36:47;;;;;;;29.27;17.58;;;8.10;99.90;;;;;;5047447;28;20059;-80
2022/01/29 05:39:12;;;;;;;27.92;18.42;;;8.10;99.90;;;;;;5050491;28;20482;-80
2022/01/29 05:41:38;;;;;;;29.08;17.85;;;8.10;99.90;;;;;;5049388;28;20033;-80
2022/01/29 05:44:04;;;;;;;27.95;17.23;;;8.10;99.90;;;;;;5047382;28;20048;-80
2022/01/29 05:46:29;;;;;;;27.88;16.88;;;8.10;99.90;;;;;;5050162;28;20048;-80
2022/01/29 05:48:56;;;;;;;28.40;17.65;;;8.10;99.90;;;;;;5049999;28;20060;-80
2022/01/29 05:51:22;;;;;;;31.35;16.45;;;8.10;99.90;;;;;;5051469;28;20033;-80
2022/01/29 05:53:48;;;;;;;32.35;18.27;;;8.20;99.90;;;;;;5050268;28;20122;-80
2022/01/29 05:56:13;;;;;;;29.45;16.95;;;8.20;99.90;;;;;;5049585;28;20112;-81
2022/01/29 05:58:39;;;;;;;31.33;17.75;;;8.20;99.90;;;;;;5050944;28;20094;-80
2022/01/29 06:01:05;;;;;;;29.52;16.45;;;8.20;99.90;;;;;;5049563;28;20114;-80
2022/01/29 06:03:31;;;;;;;28.23;17.08;;;8.20;99.90;;;;;;5051287;28;20044;-80
2022/01/29 06:05:56;;;;;;;26.85;16.60;;;8.20;99.90;;;;;;5047518;28;20041;-80
2022/01/29 06:08:22;;;;;;;31.27;15.13;;;8.20;99.90;;;;;;5050666;28;20041;-81
2022/01/29 06:10:48;;;;;;;26.65;15.40;;;8.20;99.90;;;;;;5049455;28;20045;-81
2022/01/29 06:13:16;;;;;;;24.98;15.18;;;8.30;99.90;;;;;;5048749;28;20037;-81
2022/01/29 06:15:47;;;;;;;26.50;15.55;;;8.20;99.90;;;;;;5048734;28;20048;-80
2022/01/29 06:18:18;;;;;;;25.25;15.20;;;8.20;99.90;;;;;;5049355;28;20056;-80
2022/01/29 06:20:52;;;;;;;26.38;13.68;;;8.30;99.90;;;;;;5049795;28;20639;-81
2022/01/29 06:23:29;;;;;;;22.02;14.52;;;8.20;99.90;;;;;;5048453;28;20080;-80
2022/01/29 06:25:55;;;;;;;22.48;13.32;;;8.30;99.90;;;;;;5049231;28;20283;-80
2022/01/29 06:28:21;;;;;;;21.08;13.50;;;8.30;99.90;;;;;;5081456;28;20040;-80
2022/01/29 06:30:46;;;;;;;20.52;12.80;;;8.40;99.90;;;;;;5048936;28;20485;-80
2022/01/29 06:33:13;;;;;;;18.77;11.75;;;8.40;99.90;;;;;;5050072;28;20553;-80
2022/01/29 06:35:42;;;;;;;21.65;11.77;;;8.40;99.90;;;;;;5048272;28;20069;-81
2022/01/29 06:38:09;;;;;;;22.00;11.52;;;8.50;99.90;;;;;;5049238;28;20120;-81
2022/01/29 06:40:36;;;;;;;18.90;12.23;;;8.40;99.90;;;;;;5081943;28;20049;-80
2022/01/29 06:43:03;;;;;;;20.83;11.13;;;8.40;99.90;;;;;;5080841;28;20112;-80
2022/01/29 06:45:30;;;;;;;20.52;11.55;;;8.50;99.90;;;;;;5045966;28;20638;-81
2022/01/29 06:47:56;;;;;;;20.08;10.85;;;8.50;99.90;;;;;;5048703;28;20068;-81
2022/01/29 06:50:23;;;;;;;18.08;10.30;;;8.50;99.90;;;;;;5049752;28;20124;-80
2022/01/29 06:52:49;;;;;;;16.02;10.32;;;8.50;99.90;;;;;;5048216;28;20048;-80
2022/01/29 06:55:14;;;;;;;20.05;10.57;;;8.50;99.90;;;;;;5048334;28;20076;-80
2022/01/29 06:57:40;;;;;;;21.92;10.52;;;8.50;99.90;;;;;;5048418;28;20130;-80
2022/01/29 07:00:09;;;;;;;22.73;10.90;;;8.50;99.90;;;;;;5082141;28;20095;-80
2022/01/29 07:02:35;;;;;;;24.40;10.73;;;8.60;99.90;;;;;;5063896;28;20155;-80
2022/01/29 07:05:06;;;;;;;18.92;10.95;;;8.60;99.90;;;;;;5064460;28;20052;-80
2022/01/29 07:07:31;;;;;;;22.90;10.80;;;8.60;99.90;;;;;;5047370;28;20082;-80
2022/01/29 07:09:57;;;;;;;19.95;10.40;;;8.60;99.90;;;;;;5048741;28;20123;-80
2022/01/29 07:12:23;;;;;;;20.60;11.57;;;8.60;99.90;;;;;;5045124;28;20077;-81
2022/01/29 07:14:49;;;;;;;18.70;11.48;;;8.60;99.90;;;;;;5081809;28;20783;-80
2022/01/29 07:17:17;;;;;;;18.95;11.30;;;8.60;99.90;;;;;;5079806;28;20644;-80
2022/01/29 07:19:46;;;;;;;19.35;10.95;;;8.60;99.90;;;;;;5049183;28;20601;-80
2022/01/29 07:22:12;;;;;;;19.17;11.13;;;8.60;99.90;;;;;;5039815;28;20061;-80
2022/01/29 07:24:38;;;;;;;16.92;10.40;;;8.60;99.90;;;;;;5047070;28;20709;-80
2022/01/29 07:27:05;;;;;;;18.15;11.57;;;8.50;99.90;;;;;;5048399;28;20484;-80
2022/01/29 07:29:31;;;;;;;21.42;11.23;;;8.60;99.90;;;;;;5046087;28;20110;-80
2022/01/29 07:31:58;;;;;;;18.90;11.02;;;8.60;99.90;;;;;;5079143;28;20051;-80
2022/01/29 07:34:25;;;;;;;26.40;11.93;;;8.60;99.90;;;;;;5048567;28;20032;-77
2022/01/29 07:36:51;;;;;;;21.77;11.07;;;8.60;99.90;;;;;;5047135;28;20537;-77
2022/01/29 07:39:17;;;;;;;19.25;11.63;;;8.60;99.90;;;;;;5047412;28;20041;-77
2022/01/29 07:41:43;;;;;;;20.70;11.45;;;8.50;99.90;;;;;;5048171;28;20499;-76
2022/01/29 07:44:08;;;;;;;19.13;12.05;;;8.50;99.90;;;;;;5048157;28;20484;-76
2022/01/29 07:46:34;;;;;;;24.88;13.00;;;8.50;99.90;;;;;;5045221;28;20046;-77
2022/01/29 07:48:59;;;;;;;20.60;11.82;;;8.50;99.90;;;;;;5045181;28;20041;-77
2022/01/29 07:51:25;;;;;;;22.45;13.50;;;8.50;99.90;;;;;;5045512;28;20032;-77
2022/01/29 07:53:51;;;;;;;23.05;11.80;;;8.50;99.90;;;;;;5047484;28;20495;-76
2022/01/29 07:56:17;;;;;;;18.27;11.90;;;8.60;99.90;;;;;;5046426;28;20037;-77
2022/01/29 07:58:42;;;;;;;24.08;11.95;;;8.50;99.90;;;;;;5048233;28;20033;-77
2022/01/29 08:01:08;;;;;;;24.08;12.13;;;8.50;99.90;;;;;;5047139;28;20552;-77
2022/01/29 08:03:33;;;;;;;20.20;12.00;;;8.50;99.90;;;;;;5049408;28;20655;-77
2022/01/29 08:05:59;;;;;;;17.48;11.32;;;8.50;99.90;;;;;;5046238;28;20068;-77
2022/01/29 08:08:25;;;;;;;27.50;12.95;;;8.50;99.90;;;;;;5049736;28;20128;-77
2022/01/29 08:10:52;;;;;;;26.80;12.05;;;8.50;99.90;;;;;;5050142;28;20482;-77
2022/01/29 08:13:18;;;;;;;17.80;11.25;;;8.50;99.90;;;;;;5050539;28;20045;-76
2022/01/29 08:15:44;;;;;;;17.40;12.43;;;8.60;99.90;;;;;;5050468;28;20095;-77
2022/01/29 08:18:10;;;;;;;18.35;10.82;;;8.60;99.90;;;;;;5051700;28;20036;-77
2022/01/29 08:20:35;;;;;;;21.80;10.75;;;8.60;99.90;;;;;;5049851;28;20402;-77
2022/01/29 08:23:06;;;;;;;17.48;8.98;;;8.60;99.90;;;;;;5050519;28;20071;-76
2022/01/29 08:25:32;;;;;;;18.60;9.93;;;8.60;99.90;;;;;;5051858;28;20394;-76
2022/01/29 08:27:57;;;;;;;20.38;9.27;;;8.70;99.90;;;;;;5049636;28;20121;-77
2022/01/29 08:30:23;;;;;;;20.88;9.88;;;8.70;99.90;;;;;;5050481;28;20403;-77
2022/01/29 08:32:48;;;;;;;19.35;9.50;;;8.70;99.90;;;;;;5049626;28;20479;-77
2022/01/29 08:35:15;;;;;;;15.82;7.90;;;8.70;99.90;;;;;;5050521;28;20396;-77
2022/01/29 08:37:41;;;;;;;15.10;7.72;;;8.70;99.90;;;;;;5048510;28;20041;-77
2022/01/29 08:40:08;;;;;;;13.63;6.97;;;8.80;99.90;;;;;;5051609;28;20084;-77
2022/01/29 08:42:33;;;;;;;16.63;7.20;;;8.70;99.90;;;;;;5049524;28;20033;-77
2022/01/29 08:45:01;;;;;;;11.68;6.25;;;8.80;99.90;;;;;;5048458;28;20804;-77
2022/01/29 08:47:26;;;;;;;12.25;5.90;;;8.70;99.90;;;;;;5049998;28;20033;-77
2022/01/29 08:49:52;;;;;;;11.30;6.05;;;8.90;99.90;;;;;;5050900;28;20053;-77
2022/01/29 08:52:18;;;;;;;12.57;7.13;;;8.80;99.90;;;;;;5050592;28;20047;-76
2022/01/29 08:54:43;;;;;;;14.40;5.45;;;8.90;99.90;;;;;;5051651;28;20040;-76
2022/01/29 08:57:09;;;;;;;11.85;5.40;;;8.90;99.90;;;;;;5049173;28;20059;-78
2022/01/29 08:59:34;;;;;;;10.77;5.53;;;8.90;99.90;;;;;;5050707;28;20690;-77
2022/01/29 09:02:00;;;;;;;15.05;5.78;;;8.90;99.90;;;;;;5051115;28;20040;-77
2022/01/29 09:04:25;;;;;;;9.82;5.20;;;9.00;99.90;;;;;;5083968;28;20412;-77
2022/01/29 09:06:51;;;;;;;20.67;6.72;;;8.90;99.90;;;;;;5050790;28;20041;-77
2022/01/29 09:09:20;;;;;;;17.88;5.90;;;9.00;99.90;;;;;;5049377;28;20037;-77
2022/01/29 09:11:47;;;;;;;17.40;5.85;;;9.00;99.90;;;;;;5050011;28;20040;-76
2022/01/29 09:14:13;;;;;;;15.10;5.55;;;9.00;99.90;;;;;;5033406;28;20170;-77
2022/01/29 09:16:38;;;;;;;13.27;6.07;;;9.00;99.90;;;;;;5049422;28;20156;-77
2022/01/29 09:19:04;;;;;;;16.50;6.15;;;9.10;99.90;;;;;;5050644;28;20037;-77
2022/01/29 09:21:29;;;;;;;18.10;6.38;;;9.10;99.90;;;;;;5049858;28;20128;-77
2022/01/29 09:23:56;;;;;;;12.82;5.32;;;9.10;99.90;;;;;;5049592;28;20151;-77
2022/01/29 09:26:23;;;;;;;14.13;5.03;;;9.10;99.90;;;;;;5049511;28;20053;-77
2022/01/29 09:28:48;;;;;;;17.10;6.13;;;9.10;99.90;;;;;;5048765;28;20877;-77
2022/01/29 09:31:14;;;;;;;13.20;4.85;;;9.20;99.90;;;;;;5082492;28;20136;-77
2022/01/29 09:33:40;;;;;;;13.32;6.05;;;9.20;99.90;;;;;;5048123;28;20063;-77
2022/01/29 09:36:05;;;;;;;10.23;4.50;;;9.20;99.90;;;;;;5050848;28;20475;-77
2022/01/29 09:38:31;;;;;;;13.18;4.93;;;9.30;99.90;;;;;;5049696;28;20456;-77
2022/01/29 09:40:58;;;;;;;11.35;5.55;;;9.40;99.90;;;;;;5049352;28;20526;-77
2022/01/29 09:43:26;;;;;;;11.73;5.13;;;9.40;99.90;;;;;;5043903;28;20140;-77
2022/01/29 09:45:52;;;;;;;10.80;3.92;;;9.40;99.90;;;;;;5049645;28;20041;-77
2022/01/29 09:48:27;;;;;;;10.88;3.80;;;9.40;99.90;;;;;;5050293;28;20098;-77
2022/01/29 09:50:53;;;;;;;;;;;9.50;99.90;;;;;;5051199;28;20072;-77
2022/01/29 09:53:20;;;;;;;9.60;3.30;;;9.50;99.90;;;;;;5050179;28;19948;-77
2022/01/29 09:55:46;;;;;;;13.02;3.92;;;9.50;99.90;;;;;;5048285;28;20041;-77
2022/01/29 09:58:12;;;;;;;11.80;3.42;;;9.50;99.90;;;;;;5042364;28;20126;-77
2022/01/29 10:00:39;;;;;;;9.68;3.55;;;9.50;99.90;;;;;;5047928;28;20045;-77
2022/01/29 10:03:10;;;;;;;10.20;3.45;;;9.60;99.90;;;;;;5049044;28;20128;-77
2022/01/29 10:05:37;;;;;;;10.95;3.58;;;9.60;99.90;;;;;;5082447;28;20037;-76
2022/01/29 10:08:04;;;;;;;14.52;4.72;;;9.60;99.90;;;;;;5049812;28;20041;-77
2022/01/29 10:10:39;;;;;;;9.60;3.30;;;9.60;99.90;;;;;;5048226;28;20044;-77
2022/01/29 10:13:30;;;;;;;11.77;3.03;;;9.60;99.90;;;;;;5048861;28;20130;-77
2022/01/29 10:16:14;;;;;;;8.02;3.22;;;9.60;99.90;;;;;;5048984;28;20037;-77
2022/01/29 10:18:42;;;;;;;13.38;3.47;;;9.60;99.90;;;;;;5048088;28;20079;-77
2022/01/29 10:21:12;;;;;;;13.73;3.33;;;9.50;99.90;;;;;;5049225;28;20053;-78
2022/01/29 10:23:37;;;;;;;13.55;3.17;;;9.60;99.90;;;;;;5046764;28;20040;-77
2022/01/29 10:26:04;;;;;;;8.60;2.90;;;9.60;99.90;;;;;;5049369;28;20694;-77
2022/01/29 10:28:31;;;;;;;11.13;3.17;;;9.60;99.90;;;;;;5048722;28;20086;-77
2022/01/29 10:31:00;;;;;;;10.45;2.92;;;9.60;99.90;;;;;;5047494;28;20087;-77
2022/01/29 10:33:28;;;;;;;13.50;3.33;;;9.60;99.90;;;;;;5048762;28;20044;-77
2022/01/29 10:36:02;;;;;;;10.88;3.00;;;9.60;99.90;;;;;;5049042;28;20090;-77
2022/01/29 10:38:40;;;;;;;9.90;2.38;;;9.60;99.90;;;;;;5049582;28;20550;-77
2022/01/29 10:41:18;;;;;;;14.50;4.32;;;9.60;99.90;;;;;;5049149;28;20048;-77
2022/01/29 10:44:16;;;;;;;10.60;2.50;;;9.60;99.90;;;;;;5047685;28;20040;-77
2022/01/29 10:46:49;;;;;;;11.50;3.20;;;9.60;99.90;;;;;;5079971;28;20068;-77
2022/01/29 10:49:20;;;;;;;11.57;3.10;;;9.70;99.90;;;;;;5044413;28;20508;-77
2022/01/29 10:52:09;;;;;;;11.05;3.03;;;9.70;99.90;;;;;;5049682;28;20059;-77
2022/01/29 10:54:37;;;;;;;15.02;3.72;;;9.70;99.90;;;;;;5047421;28;20040;-77
2022/01/29 10:57:05;;;;;;;8.60;2.25;;;10.20;99.90;;;;;;5050065;28;20052;-78
2022/01/29 10:59:34;;;;;;;8.95;2.25;;;9.70;99.90;;;;;;5047012;28;20158;-78
2022/01/29 11:02:06;;;;;;;10.30;2.70;;;9.70;99.90;;;;;;5047510;28;20079;-77
2022/01/29 11:04:34;;;;;;;14.88;2.65;;;9.80;99.90;;;;;;5061775;28;20033;-78
2022/01/29 11:07:05;;;;;;;8.35;2.80;;;9.90;99.90;;;;;;5047838;28;20041;-77
2022/01/29 11:09:31;;;;;;;10.35;2.10;;;9.80;99.90;;;;;;5080272;28;20045;-77
2022/01/29 11:11:58;;;;;;;12.10;2.65;;;9.80;99.90;;;;;;5049563;28;20033;-76
2022/01/29 11:14:24;;;;;;;8.93;2.58;;;9.90;99.90;;;;;;5047317;28;20049;-77
2022/01/29 11:16:52;;;;;;;10.48;3.50;;;9.90;99.90;;;;;;5047494;28;20049;-77
2022/01/29 11:19:18;;;;;;;10.02;2.28;;;9.90;99.90;;;;;;5046264;28;20039;-77
2022/01/29 11:21:46;;;;;;;12.48;2.90;;;9.80;99.90;;;;;;5049490;28;20193;-77
2022/01/29 11:24:16;;;;;;;10.88;2.97;;;9.80;99.90;;;;;;5047920;28;20068;-76
2022/01/29 11:26:44;;;;;;;8.48;2.90;;;9.80;99.90;;;;;;5048884;28;20404;-77
2022/01/29 11:29:30;;;;;;;13.32;2.92;;;9.90;99.90;;;;;;5048485;28;20045;-77
2022/01/29 11:32:21;;;;;;;9.00;3.00;;;9.90;99.90;;;;;;5079564;28;20048;-77
2022/01/29 11:35:05;;;;;;;12.43;2.85;;;9.90;99.90;;;;;;5044570;28;20495;-77
2022/01/29 11:37:44;;;;;;;9.02;2.88;;;9.90;99.90;;;;;;5079011;28;20087;-77
2022/01/29 11:40:30;;;;;;;9.68;3.15;;;10.00;99.90;;;;;;5047450;28;20047;-77
2022/01/29 11:42:59;;;;;;;12.18;2.97;;;10.00;99.90;;;;;;5041096;28;20525;-77
2022/01/29 11:45:45;;;;;;;13.13;3.28;;;10.00;99.90;;;;;;5032748;28;20053;-77
2022/01/29 11:48:30;;;;;;;13.50;3.30;;;10.00;99.90;;;;;;5050004;28;20052;-77
2022/01/29 11:51:02;;;;;;;10.17;3.50;;;10.00;99.90;;;;;;5050720;28;20068;-77
2022/01/29 11:53:50;;;;;;;12.23;2.92;;;10.10;99.90;;;;;;5044241;28;20123;-77
2022/01/29 11:56:32;;;;;;;11.00;3.17;;;10.10;99.90;;;;;;5051347;28;20045;-77
2022/01/29 11:59:19;;;;;;;11.30;2.90;;;10.20;99.90;;;;;;5084561;28;20045;-77
2022/01/29 12:01:57;;;;;;;12.52;3.30;;;10.20;99.90;;;;;;5048894;28;20088;-77
2022/01/29 12:04:44;;;;;;;12.38;2.80;;;10.20;99.90;;;;;;5050825;28;20051;-78
2022/01/29 12:07:20;;;;;;;10.60;2.78;;;10.30;99.90;;;;;;5049832;28;20041;-77
2022/01/29 12:09:48;;;;;;;11.98;2.20;;;10.30;99.90;;;;;;5050789;28;20145;-77
2022/01/29 12:12:21;;;;;;;8.25;2.33;;;10.40;99.90;;;;;;5050773;28;20051;-77
2022/01/29 12:14:52;;;;;;;7.68;2.50;;;10.40;99.90;;;;;;5084150;28;20037;-77
2022/01/29 12:17:35;;;;;;;8.30;2.95;;;10.30;99.90;;;;;;5050212;28;20045;-77
2022/01/29 12:20:03;;;;;;;10.43;2.60;;;10.40;99.90;;;;;;5048043;28;20133;-77
2022/01/29 12:22:34;;;;;;;13.18;3.00;;;10.30;99.90;;;;;;5083095;28;20032;-77
2022/01/29 12:25:04;;;;;;;12.07;2.60;;;10.40;99.90;;;;;;5051875;28;20456;-77
2022/01/29 12:27:43;;;;;;;10.73;2.80;;;10.40;99.90;;;;;;5082768;28;20044;-77
2022/01/29 12:30:11;;;;;;;6.93;2.10;;;10.50;99.90;;;;;;5044878;28;20045;-77
2022/01/29 12:32:37;;;;;;;11.30;2.53;;;10.50;99.90;;;;;;5063789;28;20040;-77
2022/01/29 12:35:03;;;;;;;12.70;2.60;;;10.50;99.90;;;;;;5049687;28;20049;-77
2022/01/29 12:37:30;;;;;;;10.20;2.67;;;10.60;99.90;;;;;;5049322;28;20051;-77
2022/01/29 12:40:19;;;;;;;10.00;2.03;;;10.60;99.90;;;;;;5051312;28;20052;-77
2022/01/29 12:42:55;;;;;;;14.43;3.17;;;10.70;99.90;;;;;;5082612;28;20112;-78
2022/01/29 12:45:27;;;;;;;10.00;1.83;;;10.70;99.90;;;;;;5050226;28;20041;-77
2022/01/29 12:48:06;;;;;;;19.75;2.90;;;10.70;99.90;;;;;;5049526;28;20072;-76
2022/01/29 12:50:32;;;;;;;9.70;1.80;;;10.70;99.90;;;;;;5081054;28;20077;-77
2022/01/29 12:53:13;;;;;;;11.27;1.65;;;10.70;99.90;;;;;;5050088;28;20411;-77
2022/01/29 12:55:39;;;;;;;7.43;1.65;;;10.70;99.90;;;;;;5049667;28;20040;-76